Flugplatz Caorle (UL)

Hier findest Du alle Informationen zum Flugplatz Caorle (UL).

Informationen für Piloten zum Flugplatz Caorle

Hier findest Du alle relevanten Informationen, die Du als Pilot benötigst, um Caorle anzufliegen.

Flugplatz: Caorle ICAO-Code: UL Flugplatz
Frequenz Turm: 118,125 Mhz GAFOR Gebiet: -
Frequenz Ground: 118,125 Mhz Mogas: ja
Platzrunde: N 0 ft Landegebühr: -
Platzhöhe: Sunrise: 03:18 Uhr UTC
Pisten: 11/29 - 800 m x 30 m, GRAS Sunset: 19:03 Uhr UTC

Mitglieder, die in Caorle fliegen

Flugwetter am Flugplatz Caorle

Die METAR Information stammen aus EDMO (298.13 km entfernt).

METAR Code:
2022/06/21 16:50
EDMO 211650Z 04008KT CAVOK 24/15 Q1012

Flugschulen am Flugplatz Caorle

Am Flugplatz Caorle gibt es leider keine Flugschule.

Benachbarte Flugplätze und Flugschulen

Es gibt 2 weitere Flugplätze in einem Umkreis von 50 km um den Flugplatz Caorle.

Flugplatz Caorle UL Platz 0.00 km
Flugplatz Al Casale UL Platz 42.36 km
Jetzt anmelden

Passwort vergessen

Umfrage Archiv

Sendet Ihr ADS-B und/oder FLARM?

Ja
83.2 %
Nein
16.8 %
Stimmen: 173 | Diskussion
Anzeige: Roland Aircraft
Statistik Alle Mitglieder

Aktuell sind 43 Besucher online.

Anzeige: ULPower Aero Engines Anzeige: Pocket FMS